sensor_id;sensor_type;location;lat;lon;timestamp;P1;durP1;ratioP1;P2;durP2;ratioP2
77449;SDS011;66536;53.150;18.172;2023-05-03T00:01:09;3.80;;;2.00;;
77449;SDS011;66536;53.150;18.172;2023-05-03T00:03:35;6.80;;;2.10;;
77449;SDS011;66536;53.150;18.172;2023-05-03T00:06:11;4.00;;;2.00;;
77449;SDS011;66536;53.150;18.172;2023-05-03T00:08:38;6.90;;;2.20;;
77449;SDS011;66536;53.150;18.172;2023-05-03T00:11:05;5.70;;;2.40;;
77449;SDS011;66536;53.150;18.172;2023-05-03T00:13:31;6.50;;;2.20;;
77449;SDS011;66536;53.150;18.172;2023-05-03T00:15:57;5.80;;;2.80;;
77449;SDS011;66536;53.150;18.172;2023-05-03T00:18:24;6.80;;;2.60;;
77449;SDS011;66536;53.150;18.172;2023-05-03T00:20:49;4.20;;;1.90;;
77449;SDS011;66536;53.150;18.172;2023-05-03T00:23:15;5.00;;;1.60;;
77449;SDS011;66536;53.150;18.172;2023-05-03T00:25:43;3.80;;;1.40;;
77449;SDS011;66536;53.150;18.172;2023-05-03T00:28:09;5.50;;;2.00;;
77449;SDS011;66536;53.150;18.172;2023-05-03T00:30:35;6.50;;;2.00;;
77449;SDS011;66536;53.150;18.172;2023-05-03T00:33:01;5.10;;;2.10;;
77449;SDS011;66536;53.150;18.172;2023-05-03T00:35:27;5.30;;;2.60;;
77449;SDS011;66536;53.150;18.172;2023-05-03T00:37:52;5.70;;;3.20;;
77449;SDS011;66536;53.150;18.172;2023-05-03T00:40:18;7.90;;;3.10;;
77449;SDS011;66536;53.150;18.172;2023-05-03T00:42:44;12.90;;;3.20;;
77449;SDS011;66536;53.150;18.172;2023-05-03T00:45:11;11.20;;;2.80;;
77449;SDS011;66536;53.150;18.172;2023-05-03T00:47:37;6.90;;;2.60;;
77449;SDS011;66536;53.150;18.172;2023-05-03T00:50:04;11.00;;;3.40;;
77449;SDS011;66536;53.150;18.172;2023-05-03T00:52:32;9.50;;;3.50;;
77449;SDS011;66536;53.150;18.172;2023-05-03T00:54:59;18.60;;;3.90;;
77449;SDS011;66536;53.150;18.172;2023-05-03T00:57:25;19.10;;;3.80;;
77449;SDS011;66536;53.150;18.172;2023-05-03T00:59:54;14.10;;;3.20;;
77449;SDS011;66536;53.150;18.172;2023-05-03T01:02:21;16.70;;;3.90;;
77449;SDS011;66536;53.150;18.172;2023-05-03T01:04:49;10.40;;;3.30;;
77449;SDS011;66536;53.150;18.172;2023-05-03T01:07:22;8.10;;;3.00;;
77449;SDS011;66536;53.150;18.172;2023-05-03T01:10:09;17.50;;;4.20;;
77449;SDS011;66536;53.150;18.172;2023-05-03T01:12:52;15.40;;;3.80;;
77449;SDS011;66536;53.150;18.172;2023-05-03T01:18:10;8.00;;;2.80;;
77449;SDS011;66536;53.150;18.172;2023-05-03T01:20:41;12.50;;;3.30;;
77449;SDS011;66536;53.150;18.172;2023-05-03T01:23:14;7.90;;;2.30;;
77449;SDS011;66536;53.150;18.172;2023-05-03T01:25:51;9.40;;;2.80;;
77449;SDS011;66536;53.150;18.172;2023-05-03T01:28:18;6.10;;;2.60;;
77449;SDS011;66536;53.150;18.172;2023-05-03T01:30:44;8.10;;;3.40;;
77449;SDS011;66536;53.150;18.172;2023-05-03T01:33:15;9.30;;;4.00;;
77449;SDS011;66536;53.150;18.172;2023-05-03T01:38:45;8.20;;;3.80;;
77449;SDS011;66536;53.150;18.172;2023-05-03T01:41:13;8.50;;;3.30;;
77449;SDS011;66536;53.150;18.172;2023-05-03T01:43:43;7.60;;;3.10;;
77449;SDS011;66536;53.150;18.172;2023-05-03T01:46:10;11.30;;;3.30;;
77449;SDS011;66536;53.150;18.172;2023-05-03T01:48:36;7.90;;;3.00;;
77449;SDS011;66536;53.150;18.172;2023-05-03T01:51:02;9.10;;;3.20;;
77449;SDS011;66536;53.150;18.172;2023-05-03T01:53:28;8.70;;;2.90;;
77449;SDS011;66536;53.150;18.172;2023-05-03T01:55:54;7.20;;;3.20;;
77449;SDS011;66536;53.150;18.172;2023-05-03T01:58:19;7.00;;;3.10;;
77449;SDS011;66536;53.150;18.172;2023-05-03T02:00:46;5.20;;;2.30;;
77449;SDS011;66536;53.150;18.172;2023-05-03T02:03:13;6.70;;;3.10;;
77449;SDS011;66536;53.150;18.172;2023-05-03T02:05:39;6.50;;;3.30;;
77449;SDS011;66536;53.150;18.172;2023-05-03T02:08:06;14.20;;;3.60;;
77449;SDS011;66536;53.150;18.172;2023-05-03T02:10:33;9.30;;;4.30;;
77449;SDS011;66536;53.150;18.172;2023-05-03T02:12:59;8.60;;;3.50;;
77449;SDS011;66536;53.150;18.172;2023-05-03T02:15:25;9.50;;;4.10;;
77449;SDS011;66536;53.150;18.172;2023-05-03T02:17:51;8.70;;;3.90;;
77449;SDS011;66536;53.150;18.172;2023-05-03T02:20:18;12.10;;;3.80;;
77449;SDS011;66536;53.150;18.172;2023-05-03T02:22:45;11.90;;;4.10;;
77449;SDS011;66536;53.150;18.172;2023-05-03T02:25:10;6.90;;;3.60;;
77449;SDS011;66536;53.150;18.172;2023-05-03T02:27:36;9.10;;;3.90;;
77449;SDS011;66536;53.150;18.172;2023-05-03T02:30:02;5.60;;;2.80;;
77449;SDS011;66536;53.150;18.172;2023-05-03T02:32:35;9.00;;;3.90;;
77449;SDS011;66536;53.150;18.172;2023-05-03T02:35:01;7.30;;;3.70;;
77449;SDS011;66536;53.150;18.172;2023-05-03T02:37:28;7.70;;;3.50;;
77449;SDS011;66536;53.150;18.172;2023-05-03T02:39:54;8.50;;;3.30;;
77449;SDS011;66536;53.150;18.172;2023-05-03T02:42:21;7.00;;;3.10;;
77449;SDS011;66536;53.150;18.172;2023-05-03T02:44:47;8.60;;;3.00;;
77449;SDS011;66536;53.150;18.172;2023-05-03T02:47:13;7.30;;;3.10;;
77449;SDS011;66536;53.150;18.172;2023-05-03T02:49:40;8.90;;;4.00;;
77449;SDS011;66536;53.150;18.172;2023-05-03T02:52:05;12.30;;;4.20;;
77449;SDS011;66536;53.150;18.172;2023-05-03T02:54:31;9.20;;;4.10;;
77449;SDS011;66536;53.150;18.172;2023-05-03T02:56:58;10.20;;;4.40;;
77449;SDS011;66536;53.150;18.172;2023-05-03T02:59:27;8.50;;;4.00;;
77449;SDS011;66536;53.150;18.172;2023-05-03T03:01:53;10.30;;;4.40;;
77449;SDS011;66536;53.150;18.172;2023-05-03T03:04:20;12.10;;;3.90;;
77449;SDS011;66536;53.150;18.172;2023-05-03T03:06:46;7.30;;;3.40;;
77449;SDS011;66536;53.150;18.172;2023-05-03T03:09:32;7.70;;;3.70;;
77449;SDS011;66536;53.150;18.172;2023-05-03T03:11:59;8.60;;;3.70;;
77449;SDS011;66536;53.150;18.172;2023-05-03T03:14:28;8.90;;;3.60;;
77449;SDS011;66536;53.150;18.172;2023-05-03T03:16:55;8.00;;;4.10;;
77449;SDS011;66536;53.150;18.172;2023-05-03T03:19:21;7.80;;;3.30;;
77449;SDS011;66536;53.150;18.172;2023-05-03T03:21:47;8.70;;;3.60;;
77449;SDS011;66536;53.150;18.172;2023-05-03T03:24:13;11.00;;;4.30;;
77449;SDS011;66536;53.150;18.172;2023-05-03T03:26:40;12.10;;;4.60;;
77449;SDS011;66536;53.150;18.172;2023-05-03T03:29:06;10.80;;;4.50;;
77449;SDS011;66536;53.150;18.172;2023-05-03T03:31:35;10.40;;;4.30;;
77449;SDS011;66536;53.150;18.172;2023-05-03T03:34:01;9.90;;;4.00;;
77449;SDS011;66536;53.150;18.172;2023-05-03T03:36:29;8.50;;;4.10;;
77449;SDS011;66536;53.150;18.172;2023-05-03T03:38:55;9.40;;;4.20;;
77449;SDS011;66536;53.150;18.172;2023-05-03T03:41:22;9.00;;;3.80;;
77449;SDS011;66536;53.150;18.172;2023-05-03T03:43:48;11.70;;;4.40;;
77449;SDS011;66536;53.150;18.172;2023-05-03T03:46:16;8.20;;;3.20;;
77449;SDS011;66536;53.150;18.172;2023-05-03T03:48:42;10.80;;;4.00;;
77449;SDS011;66536;53.150;18.172;2023-05-03T03:51:08;9.70;;;4.40;;
77449;SDS011;66536;53.150;18.172;2023-05-03T03:53:37;7.40;;;3.70;;
77449;SDS011;66536;53.150;18.172;2023-05-03T03:56:04;8.00;;;3.40;;
77449;SDS011;66536;53.150;18.172;2023-05-03T03:58:30;8.30;;;3.20;;
77449;SDS011;66536;53.150;18.172;2023-05-03T04:00:58;7.20;;;3.00;;
77449;SDS011;66536;53.150;18.172;2023-05-03T04:03:26;9.00;;;4.00;;
77449;SDS011;66536;53.150;18.172;2023-05-03T04:05:52;7.40;;;3.80;;
77449;SDS011;66536;53.150;18.172;2023-05-03T04:08:19;7.60;;;3.40;;
77449;SDS011;66536;53.150;18.172;2023-05-03T04:10:44;8.20;;;3.90;;
77449;SDS011;66536;53.150;18.172;2023-05-03T04:13:11;14.30;;;3.90;;
77449;SDS011;66536;53.150;18.172;2023-05-03T04:15:37;7.80;;;3.50;;
77449;SDS011;66536;53.150;18.172;2023-05-03T04:18:03;8.40;;;3.40;;
77449;SDS011;66536;53.150;18.172;2023-05-03T04:20:30;11.00;;;4.20;;
77449;SDS011;66536;53.150;18.172;2023-05-03T04:22:58;8.20;;;3.70;;
77449;SDS011;66536;53.150;18.172;2023-05-03T04:25:27;8.10;;;2.80;;
77449;SDS011;66536;53.150;18.172;2023-05-03T04:28:00;11.80;;;4.30;;
77449;SDS011;66536;53.150;18.172;2023-05-03T04:30:26;9.90;;;4.30;;
77449;SDS011;66536;53.150;18.172;2023-05-03T04:32:56;9.80;;;3.90;;
77449;SDS011;66536;53.150;18.172;2023-05-03T04:35:25;9.90;;;4.50;;
77449;SDS011;66536;53.150;18.172;2023-05-03T04:37:53;12.40;;;4.90;;
77449;SDS011;66536;53.150;18.172;2023-05-03T04:40:21;7.20;;;3.40;;
77449;SDS011;66536;53.150;18.172;2023-05-03T04:42:53;6.20;;;3.50;;
77449;SDS011;66536;53.150;18.172;2023-05-03T04:45:20;7.50;;;3.40;;
77449;SDS011;66536;53.150;18.172;2023-05-03T04:47:46;9.50;;;3.40;;
77449;SDS011;66536;53.150;18.172;2023-05-03T04:50:12;7.20;;;3.70;;
77449;SDS011;66536;53.150;18.172;2023-05-03T04:52:41;9.00;;;3.60;;
77449;SDS011;66536;53.150;18.172;2023-05-03T04:55:07;9.90;;;4.00;;
77449;SDS011;66536;53.150;18.172;2023-05-03T04:57:35;11.40;;;3.40;;
77449;SDS011;66536;53.150;18.172;2023-05-03T05:00:01;9.50;;;4.00;;
77449;SDS011;66536;53.150;18.172;2023-05-03T05:02:29;7.50;;;3.80;;
77449;SDS011;66536;53.150;18.172;2023-05-03T05:04:55;10.30;;;4.10;;
77449;SDS011;66536;53.150;18.172;2023-05-03T05:07:21;8.60;;;4.10;;
77449;SDS011;66536;53.150;18.172;2023-05-03T05:09:48;7.80;;;3.50;;
77449;SDS011;66536;53.150;18.172;2023-05-03T05:12:15;9.40;;;3.50;;
77449;SDS011;66536;53.150;18.172;2023-05-03T05:14:41;14.60;;;4.00;;
77449;SDS011;66536;53.150;18.172;2023-05-03T05:17:07;10.60;;;3.60;;
77449;SDS011;66536;53.150;18.172;2023-05-03T05:19:34;7.60;;;3.70;;
77449;SDS011;66536;53.150;18.172;2023-05-03T05:22:00;15.10;;;3.50;;
77449;SDS011;66536;53.150;18.172;2023-05-03T05:24:34;7.80;;;3.30;;
77449;SDS011;66536;53.150;18.172;2023-05-03T05:27:01;10.60;;;3.10;;
77449;SDS011;66536;53.150;18.172;2023-05-03T05:29:28;6.80;;;2.70;;
77449;SDS011;66536;53.150;18.172;2023-05-03T05:31:54;6.70;;;2.70;;
77449;SDS011;66536;53.150;18.172;2023-05-03T05:34:20;9.40;;;3.10;;
77449;SDS011;66536;53.150;18.172;2023-05-03T05:36:46;7.30;;;2.90;;
77449;SDS011;66536;53.150;18.172;2023-05-03T05:39:13;11.10;;;2.90;;
77449;SDS011;66536;53.150;18.172;2023-05-03T05:41:39;12.10;;;3.20;;
77449;SDS011;66536;53.150;18.172;2023-05-03T05:44:05;6.40;;;3.00;;
77449;SDS011;66536;53.150;18.172;2023-05-03T05:46:33;6.10;;;3.20;;
77449;SDS011;66536;53.150;18.172;2023-05-03T05:48:59;5.70;;;2.50;;
77449;SDS011;66536;53.150;18.172;2023-05-03T05:51:25;6.70;;;2.40;;
77449;SDS011;66536;53.150;18.172;2023-05-03T05:53:53;6.00;;;2.60;;
77449;SDS011;66536;53.150;18.172;2023-05-03T05:56:19;5.30;;;2.70;;
77449;SDS011;66536;53.150;18.172;2023-05-03T05:58:46;4.70;;;2.40;;
77449;SDS011;66536;53.150;18.172;2023-05-03T06:01:12;5.00;;;2.00;;
77449;SDS011;66536;53.150;18.172;2023-05-03T06:03:40;6.00;;;2.20;;
77449;SDS011;66536;53.150;18.172;2023-05-03T06:06:07;6.10;;;2.20;;
77449;SDS011;66536;53.150;18.172;2023-05-03T06:08:34;4.40;;;1.90;;
77449;SDS011;66536;53.150;18.172;2023-05-03T06:11:01;5.40;;;1.90;;
77449;SDS011;66536;53.150;18.172;2023-05-03T06:13:29;4.10;;;2.40;;
77449;SDS011;66536;53.150;18.172;2023-05-03T06:15:58;8.00;;;2.50;;
77449;SDS011;66536;53.150;18.172;2023-05-03T06:18:24;6.00;;;2.00;;
77449;SDS011;66536;53.150;18.172;2023-05-03T06:20:50;3.90;;;2.00;;
77449;SDS011;66536;53.150;18.172;2023-05-03T06:23:17;6.10;;;1.90;;
77449;SDS011;66536;53.150;18.172;2023-05-03T06:25:44;6.50;;;2.30;;
77449;SDS011;66536;53.150;18.172;2023-05-03T06:28:12;4.50;;;1.90;;
77449;SDS011;66536;53.150;18.172;2023-05-03T06:30:38;6.00;;;1.70;;
77449;SDS011;66536;53.150;18.172;2023-05-03T06:33:09;3.70;;;1.60;;
77449;SDS011;66536;53.150;18.172;2023-05-03T06:35:38;2.70;;;1.60;;
77449;SDS011;66536;53.150;18.172;2023-05-03T06:38:24;4.00;;;1.60;;
77449;SDS011;66536;53.150;18.172;2023-05-03T06:40:50;3.80;;;1.50;;
77449;SDS011;66536;53.150;18.172;2023-05-03T06:43:16;2.20;;;1.40;;
77449;SDS011;66536;53.150;18.172;2023-05-03T06:45:49;5.30;;;2.10;;
77449;SDS011;66536;53.150;18.172;2023-05-03T06:48:18;11.00;;;6.70;;
77449;SDS011;66536;53.150;18.172;2023-05-03T06:50:44;4.50;;;1.90;;
77449;SDS011;66536;53.150;18.172;2023-05-03T06:53:10;5.60;;;1.90;;
77449;SDS011;66536;53.150;18.172;2023-05-03T06:55:36;4.90;;;1.90;;
77449;SDS011;66536;53.150;18.172;2023-05-03T06:58:02;3.50;;;1.50;;
77449;SDS011;66536;53.150;18.172;2023-05-03T07:00:29;3.70;;;1.70;;
77449;SDS011;66536;53.150;18.172;2023-05-03T07:02:55;4.40;;;2.40;;
77449;SDS011;66536;53.150;18.172;2023-05-03T07:05:22;5.70;;;2.00;;
77449;SDS011;66536;53.150;18.172;2023-05-03T07:07:48;10.60;;;2.80;;
77449;SDS011;66536;53.150;18.172;2023-05-03T07:10:14;4.40;;;2.00;;
77449;SDS011;66536;53.150;18.172;2023-05-03T07:12:40;4.30;;;2.50;;
77449;SDS011;66536;53.150;18.172;2023-05-03T07:15:06;3.00;;;1.60;;
77449;SDS011;66536;53.150;18.172;2023-05-03T07:17:38;2.80;;;1.90;;
77449;SDS011;66536;53.150;18.172;2023-05-03T07:20:04;3.00;;;1.60;;
77449;SDS011;66536;53.150;18.172;2023-05-03T07:22:31;4.40;;;2.20;;
77449;SDS011;66536;53.150;18.172;2023-05-03T07:24:57;4.50;;;1.80;;
77449;SDS011;66536;53.150;18.172;2023-05-03T07:27:24;4.10;;;2.00;;
77449;SDS011;66536;53.150;18.172;2023-05-03T07:29:51;12.20;;;2.20;;
77449;SDS011;66536;53.150;18.172;2023-05-03T07:32:17;6.50;;;2.10;;
77449;SDS011;66536;53.150;18.172;2023-05-03T07:34:44;3.80;;;1.90;;
77449;SDS011;66536;53.150;18.172;2023-05-03T07:37:10;5.20;;;2.10;;
77449;SDS011;66536;53.150;18.172;2023-05-03T07:39:35;4.50;;;2.20;;
77449;SDS011;66536;53.150;18.172;2023-05-03T07:42:01;2.30;;;0.80;;
77449;SDS011;66536;53.150;18.172;2023-05-03T07:44:27;2.50;;;1.50;;
77449;SDS011;66536;53.150;18.172;2023-05-03T07:46:53;3.10;;;1.80;;
77449;SDS011;66536;53.150;18.172;2023-05-03T07:49:19;5.60;;;1.40;;
77449;SDS011;66536;53.150;18.172;2023-05-03T07:51:45;3.30;;;1.70;;
77449;SDS011;66536;53.150;18.172;2023-05-03T07:54:11;9.30;;;2.40;;
77449;SDS011;66536;53.150;18.172;2023-05-03T07:56:40;3.60;;;1.70;;
77449;SDS011;66536;53.150;18.172;2023-05-03T07:59:07;2.70;;;1.60;;
77449;SDS011;66536;53.150;18.172;2023-05-03T08:01:33;4.30;;;2.20;;
77449;SDS011;66536;53.150;18.172;2023-05-03T08:03:59;3.80;;;2.30;;
77449;SDS011;66536;53.150;18.172;2023-05-03T08:06:25;7.30;;;2.00;;
77449;SDS011;66536;53.150;18.172;2023-05-03T08:08:52;3.90;;;1.90;;
77449;SDS011;66536;53.150;18.172;2023-05-03T08:11:20;2.90;;;1.70;;
77449;SDS011;66536;53.150;18.172;2023-05-03T08:13:46;1.60;;;1.10;;
77449;SDS011;66536;53.150;18.172;2023-05-03T08:16:12;3.30;;;1.70;;
77449;SDS011;66536;53.150;18.172;2023-05-03T08:18:39;4.40;;;1.70;;
77449;SDS011;66536;53.150;18.172;2023-05-03T08:21:05;5.40;;;2.00;;
77449;SDS011;66536;53.150;18.172;2023-05-03T08:23:34;2.80;;;1.80;;
77449;SDS011;66536;53.150;18.172;2023-05-03T08:26:01;3.10;;;1.70;;
77449;SDS011;66536;53.150;18.172;2023-05-03T08:28:28;4.30;;;1.90;;
77449;SDS011;66536;53.150;18.172;2023-05-03T08:30:55;2.40;;;1.60;;
77449;SDS011;66536;53.150;18.172;2023-05-03T08:33:22;3.30;;;1.60;;
77449;SDS011;66536;53.150;18.172;2023-05-03T08:35:48;4.60;;;1.80;;
77449;SDS011;66536;53.150;18.172;2023-05-03T08:38:14;8.50;;;2.70;;
77449;SDS011;66536;53.150;18.172;2023-05-03T08:40:40;4.00;;;1.70;;
77449;SDS011;66536;53.150;18.172;2023-05-03T08:43:06;4.50;;;1.50;;
77449;SDS011;66536;53.150;18.172;2023-05-03T08:45:34;3.40;;;1.60;;
77449;SDS011;66536;53.150;18.172;2023-05-03T08:48:00;3.90;;;1.80;;
77449;SDS011;66536;53.150;18.172;2023-05-03T08:50:29;10.20;;;3.10;;
77449;SDS011;66536;53.150;18.172;2023-05-03T08:52:55;3.70;;;1.90;;
77449;SDS011;66536;53.150;18.172;2023-05-03T08:55:21;4.10;;;1.60;;
77449;SDS011;66536;53.150;18.172;2023-05-03T08:57:47;6.40;;;1.70;;
77449;SDS011;66536;53.150;18.172;2023-05-03T09:00:13;8.00;;;1.90;;
77449;SDS011;66536;53.150;18.172;2023-05-03T09:02:43;3.40;;;1.80;;
77449;SDS011;66536;53.150;18.172;2023-05-03T09:08:01;5.30;;;1.50;;
77449;SDS011;66536;53.150;18.172;2023-05-03T09:10:29;5.70;;;2.60;;
77449;SDS011;66536;53.150;18.172;2023-05-03T09:12:57;6.00;;;2.20;;
77449;SDS011;66536;53.150;18.172;2023-05-03T09:15:26;4.90;;;1.60;;
77449;SDS011;66536;53.150;18.172;2023-05-03T09:20:33;4.30;;;1.90;;
77449;SDS011;66536;53.150;18.172;2023-05-03T09:23:02;2.90;;;1.60;;
77449;SDS011;66536;53.150;18.172;2023-05-03T09:28:07;5.20;;;1.60;;
77449;SDS011;66536;53.150;18.172;2023-05-03T09:30:33;8.10;;;2.00;;
77449;SDS011;66536;53.150;18.172;2023-05-03T09:33:30;6.60;;;1.90;;
77449;SDS011;66536;53.150;18.172;2023-05-03T09:35:57;2.70;;;1.10;;
77449;SDS011;66536;53.150;18.172;2023-05-03T09:38:27;4.20;;;1.40;;
77449;SDS011;66536;53.150;18.172;2023-05-03T09:40:56;6.10;;;3.90;;
77449;SDS011;66536;53.150;18.172;2023-05-03T09:43:22;3.60;;;1.40;;
77449;SDS011;66536;53.150;18.172;2023-05-03T09:45:49;2.90;;;1.50;;
77449;SDS011;66536;53.150;18.172;2023-05-03T09:48:15;4.00;;;1.30;;
77449;SDS011;66536;53.150;18.172;2023-05-03T09:50:42;7.30;;;2.00;;
77449;SDS011;66536;53.150;18.172;2023-05-03T09:53:08;2.60;;;1.20;;
77449;SDS011;66536;53.150;18.172;2023-05-03T09:55:35;3.00;;;1.10;;
77449;SDS011;66536;53.150;18.172;2023-05-03T09:58:03;4.90;;;1.50;;
77449;SDS011;66536;53.150;18.172;2023-05-03T10:00:34;3.60;;;1.80;;
77449;SDS011;66536;53.150;18.172;2023-05-03T10:03:05;6.00;;;1.80;;
77449;SDS011;66536;53.150;18.172;2023-05-03T10:05:35;4.60;;;1.40;;
77449;SDS011;66536;53.150;18.172;2023-05-03T10:08:07;9.00;;;1.30;;
77449;SDS011;66536;53.150;18.172;2023-05-03T10:10:35;2.50;;;1.30;;
77449;SDS011;66536;53.150;18.172;2023-05-03T10:13:07;6.50;;;2.20;;
77449;SDS011;66536;53.150;18.172;2023-05-03T10:15:33;4.50;;;1.30;;
77449;SDS011;66536;53.150;18.172;2023-05-03T10:18:02;4.50;;;1.30;;
77449;SDS011;66536;53.150;18.172;2023-05-03T10:20:34;2.30;;;1.10;;
77449;SDS011;66536;53.150;18.172;2023-05-03T10:23:06;4.00;;;0.90;;
77449;SDS011;66536;53.150;18.172;2023-05-03T10:25:36;2.30;;;1.30;;
77449;SDS011;66536;53.150;18.172;2023-05-03T10:28:05;3.40;;;1.20;;
77449;SDS011;66536;53.150;18.172;2023-05-03T10:30:34;3.50;;;1.40;;
77449;SDS011;66536;53.150;18.172;2023-05-03T10:35:57;4.10;;;1.50;;
77449;SDS011;66536;53.150;18.172;2023-05-03T10:38:25;2.60;;;1.50;;
77449;SDS011;66536;53.150;18.172;2023-05-03T10:40:54;2.10;;;1.30;;
77449;SDS011;66536;53.150;18.172;2023-05-03T10:46:28;4.50;;;1.70;;
77449;SDS011;66536;53.150;18.172;2023-05-03T10:51:40;4.90;;;1.50;;
77449;SDS011;66536;53.150;18.172;2023-05-03T10:54:08;1.70;;;1.00;;
77449;SDS011;66536;53.150;18.172;2023-05-03T10:59:13;3.20;;;1.00;;
77449;SDS011;66536;53.150;18.172;2023-05-03T11:01:39;2.50;;;1.60;;
77449;SDS011;66536;53.150;18.172;2023-05-03T11:04:09;1.80;;;1.20;;
77449;SDS011;66536;53.150;18.172;2023-05-03T11:06:48;2.40;;;1.00;;
77449;SDS011;66536;53.150;18.172;2023-05-03T11:09:16;5.50;;;1.20;;
77449;SDS011;66536;53.150;18.172;2023-05-03T11:11:42;1.60;;;0.70;;
77449;SDS011;66536;53.150;18.172;2023-05-03T11:14:09;16.20;;;1.60;;
77449;SDS011;66536;53.150;18.172;2023-05-03T11:16:36;3.40;;;1.40;;
77449;SDS011;66536;53.150;18.172;2023-05-03T11:19:11;2.60;;;1.50;;
77449;SDS011;66536;53.150;18.172;2023-05-03T11:21:40;3.30;;;2.20;;
77449;SDS011;66536;53.150;18.172;2023-05-03T11:24:08;2.60;;;1.40;;
77449;SDS011;66536;53.150;18.172;2023-05-03T11:26:35;3.00;;;1.20;;
77449;SDS011;66536;53.150;18.172;2023-05-03T11:29:02;2.70;;;1.50;;
77449;SDS011;66536;53.150;18.172;2023-05-03T11:31:31;4.40;;;1.40;;
77449;SDS011;66536;53.150;18.172;2023-05-03T11:33:57;2.90;;;1.30;;
77449;SDS011;66536;53.150;18.172;2023-05-03T11:36:23;3.30;;;1.50;;
77449;SDS011;66536;53.150;18.172;2023-05-03T11:38:51;3.80;;;1.60;;
77449;SDS011;66536;53.150;18.172;2023-05-03T11:41:17;4.40;;;1.40;;
77449;SDS011;66536;53.150;18.172;2023-05-03T11:43:44;3.50;;;1.90;;
77449;SDS011;66536;53.150;18.172;2023-05-03T11:46:16;2.90;;;1.50;;
77449;SDS011;66536;53.150;18.172;2023-05-03T11:48:48;3.40;;;1.70;;
77449;SDS011;66536;53.150;18.172;2023-05-03T11:51:16;4.80;;;2.70;;
77449;SDS011;66536;53.150;18.172;2023-05-03T11:53:47;3.10;;;1.40;;
77449;SDS011;66536;53.150;18.172;2023-05-03T11:56:13;2.70;;;1.50;;
77449;SDS011;66536;53.150;18.172;2023-05-03T11:58:53;2.60;;;1.50;;
77449;SDS011;66536;53.150;18.172;2023-05-03T12:01:22;4.10;;;1.60;;
77449;SDS011;66536;53.150;18.172;2023-05-03T12:03:52;3.40;;;1.70;;
77449;SDS011;66536;53.150;18.172;2023-05-03T12:06:21;7.10;;;3.10;;
77449;SDS011;66536;53.150;18.172;2023-05-03T12:08:47;3.30;;;2.10;;
77449;SDS011;66536;53.150;18.172;2023-05-03T12:11:13;3.70;;;2.70;;
77449;SDS011;66536;53.150;18.172;2023-05-03T12:13:40;4.30;;;1.10;;
77449;SDS011;66536;53.150;18.172;2023-05-03T12:16:07;13.00;;;1.50;;
77449;SDS011;66536;53.150;18.172;2023-05-03T12:21:15;3.10;;;1.80;;
77449;SDS011;66536;53.150;18.172;2023-05-03T12:23:42;3.30;;;1.30;;
77449;SDS011;66536;53.150;18.172;2023-05-03T12:26:08;5.00;;;1.90;;
77449;SDS011;66536;53.150;18.172;2023-05-03T12:28:34;3.70;;;1.40;;
77449;SDS011;66536;53.150;18.172;2023-05-03T12:31:00;4.40;;;1.60;;
77449;SDS011;66536;53.150;18.172;2023-05-03T12:33:29;1.50;;;1.00;;
77449;SDS011;66536;53.150;18.172;2023-05-03T12:35:55;3.70;;;1.40;;
77449;SDS011;66536;53.150;18.172;2023-05-03T12:38:21;2.70;;;1.40;;
77449;SDS011;66536;53.150;18.172;2023-05-03T12:40:47;2.40;;;1.20;;
77449;SDS011;66536;53.150;18.172;2023-05-03T12:43:13;1.90;;;1.30;;
77449;SDS011;66536;53.150;18.172;2023-05-03T12:45:40;4.40;;;1.50;;
77449;SDS011;66536;53.150;18.172;2023-05-03T12:48:06;2.70;;;1.40;;
77449;SDS011;66536;53.150;18.172;2023-05-03T12:50:33;4.10;;;1.20;;
77449;SDS011;66536;53.150;18.172;2023-05-03T12:52:59;3.00;;;1.40;;
77449;SDS011;66536;53.150;18.172;2023-05-03T12:55:25;4.40;;;2.40;;
77449;SDS011;66536;53.150;18.172;2023-05-03T12:57:51;2.20;;;1.60;;
77449;SDS011;66536;53.150;18.172;2023-05-03T13:00:17;2.20;;;1.10;;
77449;SDS011;66536;53.150;18.172;2023-05-03T13:02:46;2.40;;;0.80;;
77449;SDS011;66536;53.150;18.172;2023-05-03T13:05:13;4.40;;;0.90;;
77449;SDS011;66536;53.150;18.172;2023-05-03T13:07:39;2.40;;;1.20;;
77449;SDS011;66536;53.150;18.172;2023-05-03T13:10:06;2.70;;;1.40;;
77449;SDS011;66536;53.150;18.172;2023-05-03T13:12:32;1.70;;;1.40;;
77449;SDS011;66536;53.150;18.172;2023-05-03T13:15:00;2.30;;;1.30;;
77449;SDS011;66536;53.150;18.172;2023-05-03T13:17:28;2.70;;;1.40;;
77449;SDS011;66536;53.150;18.172;2023-05-03T13:19:56;3.80;;;1.10;;
77449;SDS011;66536;53.150;18.172;2023-05-03T13:22:23;3.20;;;1.40;;
77449;SDS011;66536;53.150;18.172;2023-05-03T13:24:49;4.40;;;1.40;;
77449;SDS011;66536;53.150;18.172;2023-05-03T13:27:16;2.80;;;1.40;;
77449;SDS011;66536;53.150;18.172;2023-05-03T13:29:42;2.30;;;1.40;;
77449;SDS011;66536;53.150;18.172;2023-05-03T13:32:09;3.30;;;1.10;;
77449;SDS011;66536;53.150;18.172;2023-05-03T13:34:35;2.80;;;1.40;;
77449;SDS011;66536;53.150;18.172;2023-05-03T13:37:01;4.70;;;1.40;;
77449;SDS011;66536;53.150;18.172;2023-05-03T13:39:28;3.70;;;1.50;;
77449;SDS011;66536;53.150;18.172;2023-05-03T13:41:54;6.80;;;1.40;;
77449;SDS011;66536;53.150;18.172;2023-05-03T13:44:20;4.30;;;1.50;;
77449;SDS011;66536;53.150;18.172;2023-05-03T13:46:49;3.40;;;1.30;;
77449;SDS011;66536;53.150;18.172;2023-05-03T13:49:18;2.40;;;1.20;;
77449;SDS011;66536;53.150;18.172;2023-05-03T13:51:44;1.80;;;1.00;;
77449;SDS011;66536;53.150;18.172;2023-05-03T13:54:10;2.90;;;1.20;;
77449;SDS011;66536;53.150;18.172;2023-05-03T13:56:36;2.30;;;0.90;;
77449;SDS011;66536;53.150;18.172;2023-05-03T13:59:05;3.30;;;1.50;;
77449;SDS011;66536;53.150;18.172;2023-05-03T14:01:32;3.40;;;1.40;;
77449;SDS011;66536;53.150;18.172;2023-05-03T14:03:58;5.10;;;2.30;;
77449;SDS011;66536;53.150;18.172;2023-05-03T14:06:24;3.00;;;1.20;;
77449;SDS011;66536;53.150;18.172;2023-05-03T14:08:52;3.30;;;1.10;;
77449;SDS011;66536;53.150;18.172;2023-05-03T14:11:20;3.80;;;1.20;;
77449;SDS011;66536;53.150;18.172;2023-05-03T14:13:48;5.50;;;1.40;;
77449;SDS011;66536;53.150;18.172;2023-05-03T14:16:16;2.60;;;1.40;;
77449;SDS011;66536;53.150;18.172;2023-05-03T14:18:45;4.60;;;1.40;;
77449;SDS011;66536;53.150;18.172;2023-05-03T14:21:12;1.60;;;1.20;;
77449;SDS011;66536;53.150;18.172;2023-05-03T14:23:39;1.80;;;1.00;;
77449;SDS011;66536;53.150;18.172;2023-05-03T14:26:05;3.50;;;1.80;;
77449;SDS011;66536;53.150;18.172;2023-05-03T14:28:32;2.50;;;1.40;;
77449;SDS011;66536;53.150;18.172;2023-05-03T14:30:58;3.80;;;1.50;;
77449;SDS011;66536;53.150;18.172;2023-05-03T14:33:24;1.90;;;1.00;;
77449;SDS011;66536;53.150;18.172;2023-05-03T14:35:50;3.50;;;1.40;;
77449;SDS011;66536;53.150;18.172;2023-05-03T14:38:16;3.40;;;1.60;;
77449;SDS011;66536;53.150;18.172;2023-05-03T14:40:42;3.40;;;1.40;;
77449;SDS011;66536;53.150;18.172;2023-05-03T14:43:08;3.40;;;1.30;;
77449;SDS011;66536;53.150;18.172;2023-05-03T14:45:34;3.30;;;1.50;;
77449;SDS011;66536;53.150;18.172;2023-05-03T14:48:01;3.40;;;2.20;;
77449;SDS011;66536;53.150;18.172;2023-05-03T14:50:28;5.40;;;3.00;;
77449;SDS011;66536;53.150;18.172;2023-05-03T14:52:54;4.90;;;2.90;;
77449;SDS011;66536;53.150;18.172;2023-05-03T14:55:21;17.90;;;11.10;;
77449;SDS011;66536;53.150;18.172;2023-05-03T14:57:47;4.00;;;2.40;;
77449;SDS011;66536;53.150;18.172;2023-05-03T15:00:14;3.40;;;1.90;;
77449;SDS011;66536;53.150;18.172;2023-05-03T15:02:44;4.50;;;1.30;;